createdAt,value
2023-05-12T00:02:14.341Z,1.53
2023-05-12T00:04:42.708Z,1.53
2023-05-12T00:07:12.405Z,0.60
2023-05-12T00:09:41.545Z,0.33
2023-05-12T00:12:10.173Z,0.60
2023-05-12T00:14:38.443Z,1.23
2023-05-12T00:17:06.964Z,1.63
2023-05-12T00:19:36.465Z,0.60
2023-05-12T00:22:04.724Z,0.73
2023-05-12T00:24:34.415Z,1.07
2023-05-12T00:27:02.664Z,0.70
2023-05-12T00:29:30.912Z,1.17
2023-05-12T00:31:59.294Z,1.50
2023-05-12T00:34:29.049Z,1.17
2023-05-12T00:36:57.348Z,0.50
2023-05-12T00:39:25.619Z,0.80
2023-05-12T00:41:57.682Z,1.03
2023-05-12T00:44:25.955Z,0.50
2023-05-12T00:46:55.305Z,4.07
2023-05-12T00:49:23.602Z,1.90
2023-05-12T00:51:51.921Z,1.00
2023-05-12T00:54:20.193Z,0.50
2023-05-12T00:56:48.471Z,0.83
2023-05-12T00:59:18.198Z,0.63
2023-05-12T01:01:46.454Z,1.20
2023-05-12T01:04:14.692Z,0.47
2023-05-12T01:06:45.417Z,3.13
2023-05-12T01:09:13.671Z,0.70
2023-05-12T01:11:41.959Z,0.40
2023-05-12T01:14:10.338Z,0.87
2023-05-12T01:16:41.292Z,0.43
2023-05-12T01:19:10.481Z,2.63
2023-05-12T01:21:38.878Z,0.43
2023-05-12T01:24:08.044Z,1.37
2023-05-12T01:26:37.850Z,0.63
2023-05-12T01:29:06.169Z,1.30
2023-05-12T01:31:34.452Z,0.40
2023-05-12T01:34:02.852Z,1.07
2023-05-12T01:36:31.572Z,0.83
2023-05-12T01:38:59.891Z,0.80
2023-05-12T01:41:28.192Z,0.50
2023-05-12T01:43:57.811Z,0.60
2023-05-12T01:46:26.110Z,0.83
2023-05-12T01:48:54.445Z,1.13
2023-05-12T01:51:22.699Z,1.63
2023-05-12T01:53:51.008Z,0.37
2023-05-12T01:56:20.020Z,0.83
2023-05-12T01:58:48.337Z,0.40
2023-05-12T02:01:18.004Z,0.40
2023-05-12T02:03:46.379Z,0.63
2023-05-12T02:06:14.914Z,0.97
2023-05-12T02:08:43.173Z,1.17
2023-05-12T02:11:11.461Z,1.30
2023-05-12T02:13:39.788Z,0.60
2023-05-12T02:16:08.386Z,0.60
2023-05-12T02:18:38.074Z,0.60
2023-05-12T02:21:06.550Z,0.83
2023-05-12T02:23:34.831Z,0.67
2023-05-12T02:26:03.132Z,0.70
2023-05-12T02:28:31.425Z,0.70
2023-05-12T02:30:59.727Z,0.47
2023-05-12T02:33:28.016Z,1.20
2023-05-12T02:35:57.747Z,0.50
2023-05-12T02:38:26.000Z,0.60
2023-05-12T02:40:54.272Z,1.10
2023-05-12T02:43:23.784Z,0.60
2023-05-12T02:45:52.102Z,1.03
2023-05-12T02:48:20.470Z,0.50
2023-05-12T02:50:48.762Z,0.60
2023-05-12T02:53:18.404Z,0.67
2023-05-12T02:55:46.720Z,0.60
2023-05-12T02:58:15.002Z,0.57
2023-05-12T03:00:43.330Z,0.40
2023-05-12T03:03:11.785Z,0.67
2023-05-12T03:05:40.095Z,0.83
2023-05-12T03:08:08.361Z,0.87
2023-05-12T03:10:38.145Z,0.60
2023-05-12T03:13:06.394Z,3.47
2023-05-12T03:15:34.652Z,0.47
2023-05-12T03:18:02.991Z,0.60
2023-05-12T03:20:31.580Z,1.27
2023-05-12T03:22:59.826Z,0.87
2023-05-12T03:25:28.129Z,0.77
2023-05-12T03:27:57.759Z,0.40
2023-05-12T03:30:26.030Z,0.50
2023-05-12T03:32:54.337Z,1.30
2023-05-12T03:35:22.731Z,1.53
2023-05-12T03:37:51.054Z,0.53
2023-05-12T03:40:19.725Z,1.07
2023-05-12T03:42:48.288Z,1.00
2023-05-12T03:45:17.976Z,1.00
2023-05-12T03:47:46.304Z,0.40
2023-05-12T03:50:14.628Z,0.70
2023-05-12T03:52:42.960Z,0.40
2023-05-12T03:55:11.492Z,0.57
2023-05-12T03:57:39.786Z,0.40
2023-05-12T04:00:08.508Z,1.00
2023-05-12T04:02:38.256Z,0.90
2023-05-12T04:05:08.258Z,0.40
2023-05-12T04:07:36.888Z,0.70
2023-05-12T04:10:05.340Z,0.50
2023-05-12T04:12:33.624Z,0.83
2023-05-12T04:15:02.164Z,0.60
2023-05-12T04:17:30.659Z,0.57
2023-05-12T04:20:00.649Z,0.67
2023-05-12T04:22:28.972Z,2.30
2023-05-12T04:24:57.247Z,1.43
2023-05-12T04:27:25.522Z,1.70
2023-05-12T04:29:53.824Z,0.50
2023-05-12T04:32:22.126Z,0.47
2023-05-12T04:34:51.608Z,0.50
2023-05-12T04:37:22.324Z,0.50
2023-05-12T04:39:50.611Z,0.67
2023-05-12T04:42:18.954Z,0.50
2023-05-12T04:44:47.266Z,0.30
2023-05-12T04:47:15.547Z,0.30
2023-05-12T04:49:43.872Z,0.37
2023-05-12T04:52:12.175Z,0.53
2023-05-12T04:54:41.781Z,0.53
2023-05-12T04:57:10.072Z,0.50
2023-05-12T04:59:41.168Z,0.50
2023-05-12T05:02:09.837Z,0.53
2023-05-12T05:04:38.162Z,0.50
2023-05-12T05:07:06.653Z,0.60
2023-05-12T05:09:36.420Z,0.33
2023-05-12T05:12:07.173Z,1.07
2023-05-12T05:14:35.519Z,1.13
2023-05-12T05:17:03.829Z,0.30
2023-05-12T05:19:43.879Z,0.73
2023-05-12T05:22:20.507Z,0.70
2023-05-12T05:24:48.958Z,0.50
2023-05-12T05:27:18.713Z,0.40
2023-05-12T05:29:47.234Z,0.40
2023-05-12T05:32:15.833Z,0.63
2023-05-12T05:34:44.175Z,0.43
2023-05-12T05:37:12.908Z,1.37
2023-05-12T05:39:41.228Z,0.40
2023-05-12T05:42:09.649Z,0.83
2023-05-12T05:44:39.296Z,0.60
2023-05-12T05:47:07.650Z,1.20
2023-05-12T05:49:35.898Z,1.83
2023-05-12T05:52:04.158Z,0.40
2023-05-12T05:54:32.451Z,0.57
2023-05-12T05:57:02.172Z,9.93
2023-05-12T05:59:30.512Z,0.63
2023-05-12T06:02:00.242Z,0.37
2023-05-12T06:04:28.925Z,0.40
2023-05-12T06:06:57.213Z,0.50
2023-05-12T06:09:25.481Z,0.50
2023-05-12T06:11:53.749Z,0.37
2023-05-12T06:14:22.071Z,0.40
2023-05-12T06:16:50.504Z,0.60
2023-05-12T06:19:20.140Z,1.47
2023-05-12T06:21:48.402Z,0.40
2023-05-12T06:24:16.717Z,2.03
2023-05-12T06:26:44.997Z,0.40
2023-05-12T06:29:13.257Z,0.50
2023-05-12T06:31:41.538Z,0.43
2023-05-12T06:34:09.840Z,0.63
2023-05-12T06:36:39.745Z,1.47
2023-05-12T06:39:08.035Z,1.40
2023-05-12T06:41:36.391Z,2.27
2023-05-12T06:44:06.258Z,1.47
2023-05-12T06:46:34.587Z,1.67
2023-05-12T06:49:02.943Z,2.23
2023-05-12T06:51:31.225Z,2.10
2023-05-12T06:54:00.901Z,3.23
2023-05-12T06:56:29.691Z,1.80
2023-05-12T06:59:01.085Z,2.37
2023-05-12T07:01:29.494Z,3.20
2023-05-12T07:03:57.779Z,3.17
2023-05-12T07:06:27.653Z,2.83
2023-05-12T07:08:55.931Z,3.73
2023-05-12T07:11:25.591Z,3.07
2023-05-12T07:13:53.934Z,4.47
2023-05-12T07:16:22.266Z,5.03
2023-05-12T07:18:50.675Z,3.30
2023-05-12T07:21:18.988Z,3.20
2023-05-12T07:23:47.266Z,2.87
2023-05-12T07:26:15.959Z,3.10
2023-05-12T07:28:45.631Z,3.70
2023-05-12T07:31:13.933Z,3.97
2023-05-12T07:33:42.410Z,2.87
2023-05-12T07:36:10.853Z,6.60
2023-05-12T07:38:39.850Z,3.10
2023-05-12T07:41:08.138Z,4.10
2023-05-12T07:43:36.448Z,4.13
2023-05-12T07:46:06.376Z,4.43
2023-05-12T07:48:39.745Z,7.73
2023-05-12T07:51:08.417Z,4.60
2023-05-12T07:53:36.809Z,3.87
2023-05-12T07:56:05.717Z,4.30
2023-05-12T07:58:34.115Z,4.33
2023-05-12T08:01:05.955Z,3.50
2023-05-12T08:03:35.915Z,2.70
2023-05-12T08:06:05.892Z,3.73
2023-05-12T08:08:34.186Z,6.13
2023-05-12T08:11:02.482Z,2.93
2023-05-12T08:13:30.810Z,3.87
2023-05-12T08:15:59.106Z,3.57
2023-05-12T08:18:27.424Z,4.10
2023-05-12T08:20:57.132Z,4.60
2023-05-12T08:23:25.424Z,3.23
2023-05-12T08:25:53.774Z,5.40
2023-05-12T08:28:22.086Z,3.07
2023-05-12T08:30:50.403Z,3.17
2023-05-12T08:33:18.713Z,4.70
2023-05-12T08:35:47.015Z,5.13
2023-05-12T08:38:16.690Z,5.87
2023-05-12T08:40:46.418Z,3.30
2023-05-12T08:43:15.513Z,2.80
2023-05-12T08:45:43.859Z,4.00
2023-05-12T08:48:13.520Z,3.80
2023-05-12T08:50:41.856Z,3.77
2023-05-12T08:53:11.156Z,3.63
2023-05-12T08:55:46.087Z,3.53
2023-05-12T08:58:25.157Z,3.60
2023-05-12T09:00:58.849Z,8.30
2023-05-12T09:03:27.211Z,4.37
2023-05-12T09:05:55.665Z,3.17
2023-05-12T09:08:23.973Z,3.20
2023-05-12T09:10:53.657Z,3.50
2023-05-12T09:13:22.205Z,4.30
2023-05-12T09:15:52.696Z,4.10
2023-05-12T09:18:21.110Z,2.63
2023-05-12T09:20:49.428Z,5.07
2023-05-12T09:23:19.924Z,4.03
2023-05-12T09:25:48.404Z,13.27
2023-05-12T09:28:18.129Z,3.60
2023-05-12T09:30:46.382Z,2.90
2023-05-12T09:33:15.036Z,5.60
2023-05-12T09:35:43.988Z,6.30
2023-05-12T09:38:12.647Z,3.47
2023-05-12T09:40:41.128Z,3.30
2023-05-12T09:43:09.508Z,6.83
2023-05-12T09:45:39.853Z,4.97
2023-05-12T09:48:12.016Z,2.80
2023-05-12T09:50:47.852Z,3.17
2023-05-12T09:53:17.526Z,2.40
2023-05-12T09:55:45.975Z,3.83
2023-05-12T09:58:14.275Z,2.53
2023-05-12T10:01:06.647Z,3.87
2023-05-12T10:03:32.202Z,2.83
2023-05-12T10:06:01.541Z,3.47
2023-05-12T10:08:32.087Z,3.67
2023-05-12T10:11:00.557Z,3.90
2023-05-12T10:13:28.927Z,2.23
2023-05-12T10:15:58.681Z,3.27
2023-05-12T10:18:27.023Z,2.80
2023-05-12T10:20:55.360Z,2.97
2023-05-12T10:23:23.701Z,4.43
2023-05-12T10:25:52.019Z,3.57
2023-05-12T10:28:20.746Z,2.97
2023-05-12T10:30:50.284Z,4.50
2023-05-12T10:33:20.265Z,3.10
2023-05-12T10:35:49.586Z,2.60
2023-05-12T10:38:19.778Z,2.83
2023-05-12T10:40:54.670Z,2.97
2023-05-12T10:43:23.838Z,4.13
2023-05-12T10:46:07.342Z,4.30
2023-05-12T10:48:37.001Z,2.20
2023-05-12T10:51:11.222Z,5.57
2023-05-12T10:53:49.321Z,2.77
2023-05-12T10:56:24.624Z,1.97
2023-05-12T10:59:09.524Z,2.10
2023-05-12T11:01:39.334Z,3.67
2023-05-12T11:04:16.818Z,1.60
2023-05-12T11:06:47.015Z,0.97
2023-05-12T11:09:15.792Z,2.20
2023-05-12T11:11:45.893Z,1.50
2023-05-12T11:14:14.282Z,1.30
2023-05-12T11:16:45.632Z,6.73
2023-05-12T11:19:13.985Z,1.90
2023-05-12T11:21:43.688Z,1.37
2023-05-12T11:24:15.113Z,2.57
2023-05-12T11:26:43.368Z,1.40
2023-05-12T11:29:11.838Z,5.10
2023-05-12T11:31:40.210Z,1.90
2023-05-12T11:34:13.285Z,1.90
2023-05-12T11:36:42.328Z,1.50
2023-05-12T11:39:17.178Z,1.90
2023-05-12T11:41:45.960Z,1.60
2023-05-12T11:44:15.146Z,1.90
2023-05-12T11:46:43.601Z,1.23
2023-05-12T11:49:12.622Z,1.70
2023-05-12T11:51:43.871Z,1.33
2023-05-12T11:54:12.184Z,1.60
2023-05-12T11:56:48.629Z,1.20
2023-05-12T11:59:17.081Z,1.40
2023-05-12T12:01:46.337Z,1.33
2023-05-12T12:04:14.761Z,1.60
2023-05-12T12:06:46.394Z,1.57
2023-05-12T12:09:14.675Z,1.00
2023-05-12T12:11:44.323Z,0.83
2023-05-12T12:14:12.613Z,1.97
2023-05-12T12:16:40.912Z,2.13
2023-05-12T12:19:09.378Z,0.90
2023-05-12T12:21:37.865Z,0.80
2023-05-12T12:24:06.583Z,0.70
2023-05-12T12:26:34.875Z,0.93
2023-05-12T12:29:04.676Z,0.50
2023-05-12T12:31:34.489Z,1.30
2023-05-12T12:34:03.772Z,0.47
2023-05-12T12:36:32.256Z,0.90
2023-05-12T12:39:00.545Z,0.73
2023-05-12T12:41:28.798Z,1.77
2023-05-12T12:43:57.168Z,0.83
2023-05-12T12:46:26.885Z,1.33
2023-05-12T12:48:57.235Z,1.03
2023-05-12T12:51:38.497Z,1.63
2023-05-12T12:54:13.127Z,1.17
2023-05-12T12:56:41.752Z,0.73
2023-05-12T12:59:10.150Z,2.83
2023-05-12T13:01:39.781Z,2.83
2023-05-12T13:04:08.096Z,0.80
2023-05-12T13:06:36.363Z,0.97
2023-05-12T13:09:05.033Z,2.03
2023-05-12T13:11:33.360Z,0.90
2023-05-12T13:14:04.517Z,0.53
2023-05-12T13:16:32.959Z,0.83
2023-05-12T13:19:02.753Z,0.70
2023-05-12T13:21:31.216Z,0.80
2023-05-12T13:23:59.789Z,1.47
2023-05-12T13:26:28.150Z,0.80
2023-05-12T13:28:56.434Z,0.83
2023-05-12T13:31:24.862Z,0.87
2023-05-12T13:33:53.265Z,0.60
2023-05-12T13:36:22.907Z,1.00
2023-05-12T13:38:51.177Z,0.40
2023-05-12T13:41:19.455Z,0.73
2023-05-12T13:43:48.222Z,0.87
2023-05-12T13:46:16.564Z,1.10
2023-05-12T13:48:44.986Z,0.50
2023-05-12T13:51:13.228Z,0.63
2023-05-12T13:53:43.083Z,0.70
2023-05-12T13:56:11.375Z,0.67
2023-05-12T13:58:39.675Z,1.13
2023-05-12T14:01:08.747Z,0.73
2023-05-12T14:03:37.776Z,0.70
2023-05-12T14:06:06.220Z,0.97
2023-05-12T14:08:34.490Z,0.90
2023-05-12T14:11:04.188Z,1.27
2023-05-12T14:13:32.474Z,1.40
2023-05-12T14:16:00.751Z,1.63
2023-05-12T14:18:29.099Z,1.77
2023-05-12T14:20:57.967Z,1.00
2023-05-12T14:23:26.291Z,3.50
2023-05-12T14:25:55.504Z,1.50
2023-05-12T14:28:25.271Z,1.60
2023-05-12T14:30:53.664Z,1.50
2023-05-12T14:33:22.511Z,1.17
2023-05-12T14:36:03.153Z,2.10
2023-05-12T14:38:34.653Z,2.53
2023-05-12T14:41:02.933Z,1.40
2023-05-12T14:43:32.636Z,3.03
2023-05-12T14:46:02.079Z,5.23
2023-05-12T14:48:30.665Z,5.20
2023-05-12T14:50:58.970Z,1.73
2023-05-12T14:53:27.303Z,1.80
2023-05-12T14:55:55.548Z,3.27
2023-05-12T14:58:24.189Z,2.93
2023-05-12T15:00:54.073Z,2.63
2023-05-12T15:03:22.438Z,2.47
2023-05-12T15:08:22.306Z,3.53
2023-05-12T15:10:50.635Z,2.00
2023-05-12T15:13:20.487Z,2.10
2023-05-12T15:15:50.272Z,1.97
2023-05-12T15:18:21.465Z,3.10
2023-05-12T15:20:50.064Z,2.67
2023-05-12T15:23:18.338Z,2.87
2023-05-12T15:25:46.578Z,2.93
2023-05-12T15:28:14.874Z,2.77
2023-05-12T15:30:43.177Z,3.67
2023-05-12T15:33:11.472Z,3.40
2023-05-12T15:35:41.711Z,2.87
2023-05-12T15:38:09.997Z,3.50
2023-05-12T15:40:38.336Z,1.70
2023-05-12T15:43:06.712Z,2.50
2023-05-12T15:45:37.288Z,1.73
2023-05-12T15:48:07.356Z,2.23
2023-05-12T15:50:38.036Z,1.57
2023-05-12T15:53:08.018Z,2.27
2023-05-12T15:55:36.330Z,2.43
2023-05-12T15:58:05.427Z,2.23
2023-05-12T16:00:33.832Z,2.63
2023-05-12T16:03:02.713Z,2.10
2023-05-12T16:05:31.916Z,2.50
2023-05-12T16:08:00.247Z,2.60
2023-05-12T16:10:29.973Z,2.80
2023-05-12T16:12:58.282Z,2.27
2023-05-12T16:15:27.343Z,2.00
2023-05-12T16:17:55.752Z,3.33
2023-05-12T16:20:24.092Z,2.30
2023-05-12T16:22:53.427Z,1.37
2023-05-12T16:25:21.929Z,2.67
2023-05-12T16:27:51.772Z,4.03
2023-05-12T16:30:20.448Z,1.73
2023-05-12T16:32:48.868Z,1.70
2023-05-12T16:35:17.656Z,1.17
2023-05-12T16:37:45.980Z,3.33
2023-05-12T16:40:14.606Z,1.67
2023-05-12T16:42:42.950Z,1.43
2023-05-12T16:45:13.246Z,3.10
2023-05-12T16:47:41.594Z,1.37
2023-05-12T16:50:10.402Z,1.67
2023-05-12T16:52:38.693Z,3.00
2023-05-12T16:55:07.406Z,1.60
2023-05-12T16:57:35.980Z,1.30
2023-05-12T17:00:05.955Z,3.17
2023-05-12T17:02:35.633Z,1.33
2023-05-12T17:05:05.349Z,1.63
2023-05-12T17:07:35.236Z,1.43
2023-05-12T17:10:03.572Z,1.57
2023-05-12T17:12:32.126Z,2.03
2023-05-12T17:15:22.264Z,5.27
2023-05-12T17:17:49.993Z,1.23
2023-05-12T17:20:18.574Z,1.90
2023-05-12T17:22:50.290Z,1.40
2023-05-12T17:25:18.911Z,0.90
2023-05-12T17:27:48.097Z,0.93
2023-05-12T17:30:16.510Z,0.83
2023-05-12T17:32:44.824Z,0.70
2023-05-12T17:35:14.972Z,1.27
2023-05-12T17:37:43.319Z,0.80
2023-05-12T17:40:15.646Z,1.20
2023-05-12T17:42:44.579Z,1.03
2023-05-12T17:45:14.754Z,1.37
2023-05-12T17:47:43.132Z,1.13
2023-05-12T17:50:12.233Z,1.37
2023-05-12T17:52:41.906Z,1.13
2023-05-12T17:55:10.317Z,0.97
2023-05-12T17:57:38.911Z,1.67
2023-05-12T18:00:10.012Z,0.80
2023-05-12T18:02:38.710Z,0.80
2023-05-12T18:05:07.462Z,1.10
2023-05-12T18:07:35.716Z,1.30
2023-05-12T18:10:05.617Z,0.87
2023-05-12T18:12:34.662Z,1.20
2023-05-12T18:15:02.977Z,0.93
2023-05-12T18:17:31.398Z,0.93
2023-05-12T18:19:59.711Z,0.80
2023-05-12T18:22:28.056Z,1.30
2023-05-12T18:24:56.322Z,1.33
2023-05-12T18:27:25.968Z,2.53
2023-05-12T18:29:54.243Z,0.90
2023-05-12T18:32:23.809Z,1.03
2023-05-12T18:34:53.247Z,1.63
2023-05-12T18:37:22.065Z,1.00
2023-05-12T18:39:50.378Z,0.90
2023-05-12T18:42:18.616Z,1.13
2023-05-12T18:44:48.325Z,1.33
2023-05-12T18:47:16.649Z,1.20
2023-05-12T18:49:44.948Z,1.83
2023-05-12T18:52:13.264Z,0.93
2023-05-12T18:54:41.604Z,6.10
2023-05-12T18:57:10.139Z,2.97
2023-05-12T18:59:38.409Z,1.53
2023-05-12T19:02:08.188Z,1.37
2023-05-12T19:04:36.634Z,1.67
2023-05-12T19:07:06.566Z,1.77
2023-05-12T19:09:35.112Z,1.33
2023-05-12T19:12:05.985Z,1.97
2023-05-12T19:14:34.567Z,1.20
2023-05-12T19:17:02.870Z,1.47
2023-05-12T19:19:32.495Z,1.53
2023-05-12T19:22:01.011Z,2.07
2023-05-12T19:24:29.341Z,1.40
2023-05-12T19:26:58.428Z,1.80
2023-05-12T19:29:26.785Z,1.60
2023-05-12T19:31:55.313Z,1.93
2023-05-12T19:34:23.887Z,1.30
2023-05-12T19:36:56.069Z,1.60
2023-05-12T19:39:24.347Z,1.80
2023-05-12T19:41:52.790Z,2.03
2023-05-12T19:44:21.972Z,1.07
2023-05-12T19:46:50.921Z,0.97
2023-05-12T19:49:19.231Z,2.83
2023-05-12T19:51:48.701Z,1.30
2023-05-12T19:54:18.354Z,2.30
2023-05-12T19:56:46.640Z,2.87
2023-05-12T19:59:14.928Z,1.43
2023-05-12T20:01:43.240Z,1.37
2023-05-12T20:04:11.579Z,1.73
2023-05-12T20:06:40.343Z,1.50
2023-05-12T20:09:08.621Z,4.50
2023-05-12T20:11:38.638Z,3.13
2023-05-12T20:14:07.214Z,2.03
2023-05-12T20:16:35.516Z,2.07
2023-05-12T20:19:03.848Z,4.37
2023-05-12T20:21:32.347Z,1.60
2023-05-12T20:24:00.821Z,1.77
2023-05-12T20:26:30.634Z,1.40
2023-05-12T20:29:00.682Z,2.03
2023-05-12T20:31:28.946Z,1.93
2023-05-12T20:33:57.895Z,1.10
2023-05-12T20:36:26.197Z,1.87
2023-05-12T20:38:54.476Z,5.50
2023-05-12T20:41:22.779Z,1.27
2023-05-12T20:43:51.091Z,2.20
2023-05-12T20:46:21.062Z,1.50
2023-05-12T20:48:49.429Z,1.57
2023-05-12T20:51:17.928Z,1.90
2023-05-12T20:53:46.262Z,2.47
2023-05-12T20:56:14.570Z,2.50
2023-05-12T20:58:43.285Z,412.87
2023-05-12T21:01:11.565Z,166.93
2023-05-12T21:03:42.030Z,405.17
2023-05-12T21:06:12.049Z,431.73
2023-05-12T21:08:40.349Z,373.53
2023-05-12T21:11:14.753Z,267.83
2023-05-12T21:13:43.141Z,216.20
2023-05-12T21:16:11.512Z,213.47
2023-05-12T21:18:41.242Z,176.47
2023-05-12T21:21:09.590Z,158.93
2023-05-12T21:23:38.037Z,126.23
2023-05-12T21:26:06.350Z,111.77
2023-05-12T21:28:34.639Z,140.60
2023-05-12T21:31:02.932Z,118.10
2023-05-12T21:33:31.213Z,115.13
2023-05-12T21:36:00.876Z,110.30
2023-05-12T21:38:29.163Z,101.90
2023-05-12T21:40:57.475Z,75.93
2023-05-12T21:43:25.840Z,67.07
2023-05-12T21:45:54.249Z,79.10
2023-05-12T21:48:22.580Z,68.63
2023-05-12T21:50:59.116Z,68.53
2023-05-12T21:53:28.783Z,54.80
2023-05-12T21:55:57.042Z,65.30
2023-05-12T21:58:25.358Z,56.93
2023-05-12T22:00:53.941Z,46.80
2023-05-12T22:03:22.923Z,62.17
2023-05-12T22:05:51.315Z,52.70
2023-05-12T22:08:19.979Z,55.70
2023-05-12T22:10:49.607Z,49.20
2023-05-12T22:13:19.146Z,62.73
2023-05-12T22:15:47.482Z,50.33
2023-05-12T22:18:15.816Z,52.77
2023-05-12T22:20:44.544Z,34.63
2023-05-12T22:23:12.872Z,40.43
2023-05-12T22:25:41.184Z,37.03
2023-05-12T22:28:11.058Z,25.97
2023-05-12T22:30:39.363Z,27.70
2023-05-12T22:33:07.703Z,30.20
2023-05-12T22:35:36.090Z,26.47
2023-05-12T22:38:04.448Z,42.20
2023-05-12T22:40:33.784Z,29.63
2023-05-12T22:43:02.171Z,26.90
2023-05-12T22:45:31.907Z,31.13
2023-05-12T22:48:00.243Z,14.97
2023-05-12T22:50:28.568Z,29.53
2023-05-12T22:52:57.453Z,15.93
2023-05-12T22:55:28.280Z,23.83
2023-05-12T22:57:56.638Z,33.73
2023-05-12T23:00:24.965Z,10.70
2023-05-12T23:02:54.735Z,21.27
2023-05-12T23:05:23.228Z,12.50
2023-05-12T23:07:51.483Z,16.90
2023-05-12T23:10:20.524Z,16.97
2023-05-12T23:12:48.910Z,12.03
2023-05-12T23:15:17.174Z,11.20
2023-05-12T23:17:45.504Z,10.50
2023-05-12T23:20:15.439Z,11.70
2023-05-12T23:22:43.702Z,10.33
2023-05-12T23:25:12.092Z,10.90
2023-05-12T23:27:40.386Z,11.97
2023-05-12T23:30:09.282Z,9.23
2023-05-12T23:32:37.760Z,11.23
2023-05-12T23:35:06.570Z,8.60
2023-05-12T23:37:36.314Z,4.67
2023-05-12T23:40:04.786Z,9.17
2023-05-12T23:42:33.073Z,4.53
2023-05-12T23:45:01.369Z,7.40
2023-05-12T23:47:29.705Z,6.17
2023-05-12T23:49:58.027Z,6.77
2023-05-12T23:52:26.391Z,4.53
2023-05-12T23:54:56.080Z,8.47
2023-05-12T23:57:24.377Z,5.67
2023-05-12T23:59:52.695Z,3.70
